Monument, CO

4:24 PM MDT on May 27, 2017 (GMT -0600)
Park Trail Drive | | Change Station

Elev 6935 ft 39.08 °N, 104.87 °W | Updated 8 minutes ago

Overcast
Overcast
44.2 °F
Feels Like 42 °F
N
4.3
Wind Variable Wind from NNW
Gusts 14.3 mph

Today
High -- | Low -- °F
--% Chance of Precip.
Yesterday
High -- | Low -- °F
Precip. -- in
Pressure 30.10 in
Visibility 10.0 miles
Clouds Few 1200 ft
Scattered Clouds 2000 ft
Mostly Cloudy 3100 ft
Mostly Cloudy 3900 ft
Overcast 10000 ft
Windchill 42 °F
Dew Point 44 °F
Humidity 100%
Rainfall 0.17 in
Snow Depth Not available.
5:37 AM 8:16 PM
Waxing Crescent, 7% visible
SPECI KAFF 272059Z AUTO 35016G24KT 10SM FEW012 SCT020 BKN031 BKN039 OVC100 08/05 A3018 RMK AO2 RAE59 SLP193
Pressure 30.10 in
Visibility 10.0 miles
Clouds Few 1200 ft
Scattered Clouds 2000 ft
Mostly Cloudy 3100 ft
Mostly Cloudy 3900 ft
Overcast 10000 ft
Windchill 42 °F
Dew Point 44 °F
Humidity 100%
Rainfall 0.17 in
Snow Depth Not available.
5:37 AM 8:16 PM
Waxing Crescent, 7% visible
SPECI KAFF 272059Z AUTO 35016G24KT 10SM FEW012 SCT020 BKN031 BKN039 OVC100 08/05 A3018 RMK AO2 RAE59 SLP193

Get Severe Weather Alerts

Thanks for signing up!

Be on the lookout for a verification email in your inbox.

You'll start receiving the daily forecast at 6 AM.

×

10-Day Weather Forecast

Almanac

Astronomy

May. 27, 2017 Rise Set
Actual Time
Civil Twilight
Nautical Twilight
Astronomical Twilight
Moon
Length of Visible Light
Length of Day
Tomorrow will be .
, % of the Moon is Illuminated

Today's Extremes

State Highs State Lows

Community

WunderPhotos

Category 6

Welcome to Category 6. This is the collective home for Weather Underground's featured writeups by Dr. Jeff Masters (right), Bob Henson (left), Chris Burt, and other regular contributors.

Nearby

Air Quality

  Air Quality AQ Index Pollutant
Not available.

Snow Depth

Station Depth Elevation

Earthquake Activity

City Distance Mag. Time & Date
Minimum magnitude displayed is 2.5.

Coastal Water Temperatures

Place Temperature

Stations

Nearby Weather Stations

Station Location Temp. Windchill Dew Point Humidity Wind Precip. Elev Updated Type
                   

Watches & Warnings

There are currently no watches in effect.